Time;durP1;ratioP1;P1;durP2;ratioP2;P2;SDS_P1;SDS_P2;PMS_P1;PMS_P2;Temp;Humidity;BMP_temperature;BMP_pressure;BME280_temperature;BME280_humidity;BME280_pressure;Samples;Min_cycle;Max_cycle;Signal;HPM_P1;HPM_P2
2022/12/16 00:00:49;;;;;;;20.10;10.65;;;;;;;-7.88;69.03;100595.06;4994479;28;20049;-70
2022/12/16 00:03:16;;;;;;;25.27;10.23;;;;;;;-7.66;67.59;100603.13;5010310;28;20041;-70
2022/12/16 00:05:42;;;;;;;18.95;10.05;;;;;;;-7.70;66.84;100601.34;4999980;28;20406;-70
2022/12/16 00:08:10;;;;;;;20.55;10.52;;;;;;;-7.94;65.70;100611.88;4989567;28;20041;-70
2022/12/16 00:13:17;;;;;;;20.17;10.73;;;;;;;-8.27;66.70;100606.94;4989594;28;20064;-70
2022/12/16 00:15:45;;;;;;;23.65;10.98;;;;;;;-8.20;67.55;100605.41;4980437;28;20053;-69
2022/12/16 00:18:12;;;;;;;20.38;11.02;;;;;;;-8.41;68.91;100606.69;4980006;28;20172;-69
2022/12/16 00:20:44;;;;;;;26.23;10.93;;;;;;;-8.72;69.17;100608.50;5001140;28;20050;-69
2022/12/16 00:23:12;;;;;;;23.77;12.23;;;;;;;-9.19;72.25;100615.81;4992011;28;20096;-69
2022/12/16 00:25:38;;;;;;;23.02;11.73;;;;;;;-9.16;73.20;100628.59;4994055;28;20056;-69
2022/12/16 00:28:05;;;;;;;14.68;7.32;;;;;;;-9.19;73.40;100625.09;4997140;28;20038;-69
2022/12/16 00:30:31;;;;;;;27.90;14.55;;;;;;;-9.27;74.35;100632.53;4989577;28;20513;-69
2022/12/16 00:32:58;;;;;;;28.27;13.50;;;;;;;-9.02;73.88;100628.94;4978939;28;20514;-69
2022/12/16 00:35:24;;;;;;;21.95;11.23;;;;;;;-8.63;72.26;100629.03;4992796;28;20056;-69
2022/12/16 00:37:50;;;;;;;21.48;10.88;;;;;;;-8.25;69.75;100630.75;4992066;28;20130;-69
2022/12/16 00:40:19;;;;;;;18.77;10.73;;;;;;;-8.13;68.45;100630.16;4977354;28;20042;-69
2022/12/16 00:42:45;;;;;;;19.42;10.88;;;;;;;-7.93;67.84;100629.72;4989066;28;20058;-69
2022/12/16 00:45:12;;;;;;;28.38;11.82;;;;;;;-7.86;67.10;100633.25;4999540;28;20056;-69
2022/12/16 00:47:38;;;;;;;25.77;11.15;;;;;;;-7.93;65.80;100639.91;4979779;28;20053;-69
2022/12/16 00:50:06;;;;;;;23.48;11.35;;;;;;;-8.19;64.83;100637.63;4989534;28;20531;-69
2022/12/16 00:52:32;;;;;;;19.88;11.05;;;;;;;-8.31;65.69;100643.34;4990316;28;20053;-69
2022/12/16 00:54:59;;;;;;;30.77;12.57;;;;;;;-8.35;67.13;100633.91;4994306;28;20041;-69
2022/12/16 00:57:26;;;;;;;21.60;12.15;;;;;;;-8.60;68.59;100635.03;5004587;28;20100;-69
2022/12/16 00:59:53;;;;;;;23.70;11.02;;;;;;;-8.51;69.01;100642.03;4992119;28;20069;-69
2022/12/16 01:02:19;;;;;;;22.50;11.82;;;;;;;-8.20;68.21;100630.84;4980941;28;20049;-69
2022/12/16 01:04:46;;;;;;;19.95;11.48;;;;;;;-7.92;67.33;100634.00;5002804;28;20513;-70
2022/12/16 01:07:12;;;;;;;24.52;11.10;;;;;;;-7.97;66.42;100635.59;5003347;28;20518;-70
2022/12/16 01:09:39;;;;;;;25.98;11.25;;;;;;;-7.87;65.79;100645.13;4988556;28;20057;-70
2022/12/16 01:12:06;;;;;;;24.60;11.10;;;;;;;-7.81;64.99;100641.84;4996042;28;20536;-70
2022/12/16 01:14:33;;;;;;;19.65;11.27;;;;;;;-7.71;64.74;100637.78;4998182;28;20088;-70
2022/12/16 01:17:00;;;;;;;22.70;11.45;;;;;;;-7.63;64.07;100639.66;4993952;28;20052;-70
2022/12/16 01:19:26;;;;;;;21.27;11.02;;;;;;;-7.55;64.14;100634.72;4999551;28;20045;-70
2022/12/16 01:21:53;;;;;;;19.27;10.15;;;;;;;-7.50;63.93;100635.69;4993625;28;20057;-70
2022/12/16 01:24:19;;;;;;;23.83;10.43;;;;;;;-7.68;63.29;100640.38;4987796;28;20038;-69
2022/12/16 01:26:46;;;;;;;25.38;10.60;;;;;;;-7.63;63.42;100643.91;4991761;28;20176;-69
2022/12/16 01:29:12;;;;;;;25.60;11.38;;;;;;;-7.67;63.42;100655.72;4999266;28;20057;-68
2022/12/16 01:31:40;;;;;;;23.73;12.05;;;;;;;-7.82;63.73;100655.41;4993049;28;20052;-69
2022/12/16 01:34:07;;;;;;;24.88;11.35;;;;;;;-7.73;63.49;100657.28;5018290;28;20459;-69
2022/12/16 01:36:33;;;;;;;18.73;10.20;;;;;;;-7.77;63.23;100656.34;5024880;28;20040;-69
2022/12/16 01:39:00;;;;;;;18.88;9.63;;;;;;;-7.96;62.69;100657.66;4999407;28;20540;-69
2022/12/16 01:41:26;;;;;;;18.90;9.30;;;;;;;-7.96;62.40;100649.16;4998674;28;20490;-69
2022/12/16 01:43:52;;;;;;;15.88;9.10;;;;;;;-7.94;62.52;100653.44;5016824;28;20076;-69
2022/12/16 01:46:23;;;;;;;30.35;9.98;;;;;;;-7.79;62.86;100654.59;4978213;28;20057;-69
2022/12/16 01:48:57;;;;;;;18.83;8.90;;;;;;;-7.76;62.95;100652.13;5007804;28;20049;-69
2022/12/16 01:51:30;;;;;;;23.73;11.13;;;;;;;-7.89;63.09;100646.78;4998626;28;20486;-69
2022/12/16 01:54:03;;;;;;;22.02;10.93;;;;;;;-7.84;62.95;100648.56;4996956;28;26173;-68
2022/12/16 01:56:33;;;;;;;29.33;11.75;;;;;;;-7.90;63.37;100642.50;5008626;28;20037;-68
2022/12/16 01:59:00;;;;;;;20.27;10.13;;;;;;;-7.98;63.39;100644.03;4983763;28;20046;-68
2022/12/16 02:01:26;;;;;;;22.20;10.65;;;;;;;-8.09;63.66;100644.66;5005816;28;20053;-68
2022/12/16 02:04:00;;;;;;;17.98;9.85;;;;;;;-8.42;64.50;100644.78;4997624;28;20052;-68
2022/12/16 02:06:27;;;;;;;37.33;9.63;;;;;;;-8.40;64.64;100644.00;5005428;28;20492;-68
2022/12/16 02:08:57;;;;;;;19.35;10.20;;;;;;;-8.65;65.51;100636.66;4995359;28;20057;-68
2022/12/16 02:11:56;;;;;;;19.23;9.45;;;;;;;-8.64;65.49;100645.09;4990881;28;20057;-68
2022/12/16 02:14:44;;;;;;;20.50;9.65;;;;;;;-8.56;65.75;100641.06;4982161;28;20092;-68
2022/12/16 02:17:17;;;;;;;20.55;10.32;;;;;;;-8.74;65.69;100641.50;4991269;28;20417;-68
2022/12/16 02:20:22;;;;;;;19.25;10.48;;;;;;;-8.67;65.49;100637.41;5002192;28;20379;-68
2022/12/16 02:23:05;;;;;;;18.85;7.80;;;;;;;-8.71;66.56;100631.41;4963955;28;20057;-68
2022/12/16 02:25:59;;;;;;;21.67;9.90;;;;;;;-8.46;66.58;100632.84;4991772;28;20112;-68
2022/12/16 02:28:43;;;;;;;13.82;8.65;;;;;;;-8.31;65.89;100632.34;4981762;28;20046;-68
2022/12/16 02:31:25;;;;;;;17.58;9.52;;;;;;;-8.28;65.38;100624.75;4991287;28;20049;-68
2022/12/16 02:34:08;;;;;;;19.38;9.60;;;;;;;-8.45;64.91;100632.84;4986899;28;20049;-68
2022/12/16 02:36:47;;;;;;;17.13;8.18;;;;;;;-8.82;65.12;100632.81;4991773;28;20132;-68
2022/12/16 02:39:17;;;;;;;16.23;9.48;;;;;;;-8.75;66.02;100633.81;5001940;28;20128;-68
2022/12/16 02:41:50;;;;;;;24.45;10.98;;;;;;;-9.00;67.42;100635.78;4994534;28;20037;-68
2022/12/16 02:44:18;;;;;;;13.05;6.82;;;;;;;-9.08;68.43;100632.19;4990570;28;20485;-68
2022/12/16 02:46:53;;;;;;;22.40;10.15;;;;;;;-8.61;66.84;100635.03;5000181;28;20070;-68
2022/12/16 02:49:43;;;;;;;22.77;10.02;;;;;;;-8.70;66.49;100628.03;4989704;28;20053;-69
2022/12/16 02:52:10;;;;;;;18.02;8.40;;;;;;;-8.63;64.99;100634.13;4996470;28;20049;-69
2022/12/16 02:54:36;;;;;;;17.77;8.90;;;;;;;-9.06;64.68;100635.63;4990179;28;20057;-69
2022/12/16 02:57:15;;;;;;;20.67;8.27;;;;;;;-9.41;67.47;100633.84;4990807;28;20387;-69
2022/12/16 02:59:51;;;;;;;14.77;8.63;;;;;;;-8.95;66.98;100629.13;4986474;28;20042;-69
2022/12/16 03:02:24;;;;;;;19.83;9.93;;;;;;;-8.84;66.29;100639.56;4986610;28;20425;-69
2022/12/16 03:04:56;;;;;;;19.75;8.93;;;;;;;-8.88;65.29;100630.13;4989981;28;20050;-69
2022/12/16 03:07:26;;;;;;;18.45;7.88;;;;;;;-8.76;64.27;100632.13;4996235;28;20057;-69
2022/12/16 03:09:54;;;;;;;14.90;8.45;;;;;;;-8.85;65.15;100626.81;5013745;28;20144;-69
2022/12/16 03:12:22;;;;;;;20.38;9.95;;;;;;;-8.68;64.98;100633.16;4995986;28;20057;-69
2022/12/16 03:14:52;;;;;;;20.67;9.85;;;;;;;-8.96;64.97;100627.41;4988373;28;20065;-69
2022/12/16 03:17:24;;;;;;;21.30;9.88;;;;;;;-9.10;66.18;100630.44;5000703;28;20068;-69
2022/12/16 03:19:57;;;;;;;25.40;9.27;;;;;;;-9.06;67.26;100627.16;4964073;28;20286;-69
2022/12/16 03:22:28;;;;;;;16.60;8.50;;;;;;;-9.15;67.76;100624.38;5005163;28;20281;-69
2022/12/16 03:24:55;;;;;;;19.83;9.23;;;;;;;-9.56;68.30;100634.31;4998436;28;20496;-69
2022/12/16 03:27:28;;;;;;;27.98;10.32;;;;;;;-9.72;69.77;100631.31;4988274;28;20053;-69
2022/12/16 03:30:02;;;;;;;16.90;9.80;;;;;;;-9.28;69.01;100630.84;4987620;28;20053;-69
2022/12/16 03:32:35;;;;;;;23.70;10.57;;;;;;;-8.90;67.44;100632.63;4979438;28;20049;-69
2022/12/16 03:35:12;;;;;;;19.50;10.18;;;;;;;-8.86;66.56;100625.94;5002697;28;20049;-69
2022/12/16 03:37:41;;;;;;;18.75;9.80;;;;;;;-8.78;65.81;100628.66;4987985;28;20498;-69
2022/12/16 03:40:10;;;;;;;17.95;8.55;;;;;;;-8.80;65.96;100631.19;4996259;28;20042;-69
2022/12/16 03:42:38;;;;;;;20.95;8.90;;;;;;;-8.60;65.79;100626.56;4990193;28;20473;-69
2022/12/16 03:45:08;;;;;;;19.77;10.73;;;;;;;-8.68;65.85;100630.63;4980728;28;20494;-69
2022/12/16 03:47:37;;;;;;;25.13;11.73;;;;;;;-8.84;64.76;100631.06;5001213;28;20124;-69
2022/12/16 03:50:04;;;;;;;29.33;12.45;;;;;;;-9.12;66.10;100632.06;5000065;28;20540;-69
2022/12/16 03:52:30;;;;;;;16.83;8.93;;;;;;;-9.48;68.50;100631.97;4989657;28;20052;-69
2022/12/16 03:54:57;;;;;;;20.90;10.00;;;;;;;-9.25;69.37;100630.03;5002919;28;20049;-69
2022/12/16 03:57:23;;;;;;;19.25;8.98;;;;;;;-8.84;68.09;100637.03;4990032;28;20050;-69
2022/12/16 03:59:50;;;;;;;22.40;10.43;;;;;;;-8.70;66.69;100622.09;4979623;28;20143;-69
2022/12/16 04:02:16;;;;;;;24.08;10.13;;;;;;;-8.59;65.70;100638.44;5000617;28;20053;-69
2022/12/16 04:04:44;;;;;;;23.63;10.48;;;;;;;-8.61;65.37;100635.88;4992624;28;20046;-69
2022/12/16 04:07:23;;;;;;;16.55;9.23;;;;;;;-8.36;64.87;100637.31;4980396;28;20053;-69
2022/12/16 04:09:50;;;;;;;21.85;10.95;;;;;;;-8.10;64.12;100637.84;4989513;28;20046;-69
2022/12/16 04:26:03;;;;;;;21.00;10.85;;;;;;;-9.95;70.88;100661.97;5015859;28;20083;-69
2022/12/16 04:28:30;;;;;;;21.38;10.55;;;;;;;-9.80;70.74;100663.22;5026039;28;20052;-69
2022/12/16 04:30:56;;;;;;;16.33;8.35;;;;;;;-9.95;71.52;100668.72;5010755;28;20046;-69
